Portada
METAR-TAF:

METAR-TAF

Aeropuertos :

Curazao, Antillas Neerlandesas

Aeropuerto Internacional Hato

latitud: 12-12N, longitud: 068-58W, altitud: 9 m

Observación

El informe se hizo hace 1 hora y 9 minutos, a las 13:00 UTC
Viento 13 kt del este-sureste
Temperatura 30°C
Humedad 70%
Presión 1014 hPa
Visibilidad 10 km o más
Nubes dispersas a una altura de 1800 ft

METAR: TNCC 221300Z 11013KT 9999 SCT018 30/24 Q1014 NOSIG

Hora: 10:09 (14:09 UTC)

Pronóstico

El informe se hizo hace 4 horas y 34 minutos, a las 09:35 UTC
Pronóstico válido del 22 a las 12 UTC al 23 a las 12 UTC
Viento 15 kt del este
Visibilidad 10 km o más
Nubes dispersas a una altura de 2000 ft

TAF: TNCC 220935Z 2212/2312 10015KT 9999 SCT020

Observaciones y pronósticos meteorológicos de más de 4000 aeropuertos (mensajes METAR y TAF).

Los puntos amarillos y rojos representan las estaciones disponibles.

Ponga el ratón en el punto deseado para ver el nombre de la estación.

Haga clic para ver las observaciones y los pronósticos meteorológicos.

Para cambiar el mapa : haga clic en los botones verdes con una cruz de color negro para hacer un zoom, en el botón verde con un guión para alejar o en las flechas verdes para mapas adyacentes.


METAR-TAF: